Time;durP1;ratioP1;P1;durP2;ratioP2;P2;SDS_P1;SDS_P2;PMS_P1;PMS_P2;Temp;Humidity;BMP_temperature;BMP_pressure;BME280_temperature;BME280_humidity;BME280_pressure;Samples;Min_cycle;Max_cycle;Signal;HPM_P1;HPM_P2
2021/09/22 00:00:52;;;;;;;8.80;2.63;;;13.80;99.90;;;;;;5048115;28;20197;-84
2021/09/22 00:03:18;;;;;;;3.37;2.43;;;13.80;99.90;;;;;;5050340;28;20921;-86
2021/09/22 00:05:44;;;;;;;3.60;2.30;;;13.80;99.90;;;;;;5033696;28;20224;-83
2021/09/22 00:08:09;;;;;;;4.80;2.80;;;13.70;99.90;;;;;;5066280;28;20221;-82
2021/09/22 00:10:35;;;;;;;2.77;2.50;;;13.70;99.90;;;;;;5059378;28;20221;-86
2021/09/22 00:13:01;;;;;;;4.10;3.50;;;13.70;99.90;;;;;;5066327;28;20185;-83
2021/09/22 00:15:27;;;;;;;7.03;2.57;;;13.60;99.90;;;;;;5061869;28;20236;-84
2021/09/22 00:17:54;;;;;;;5.63;2.57;;;13.60;99.90;;;;;;5049922;28;20694;-83
2021/09/22 00:20:24;;;;;;;3.17;2.53;;;13.50;99.90;;;;;;5066411;28;20213;-84
2021/09/22 00:22:51;;;;;;;4.77;2.23;;;13.50;99.90;;;;;;5049930;28;20592;-84
2021/09/22 00:25:17;;;;;;;2.90;2.33;;;13.40;99.90;;;;;;5032983;28;20338;-83
2021/09/22 00:27:43;;;;;;;7.80;2.63;;;13.40;99.90;;;;;;5066663;28;20190;-83
2021/09/22 00:30:11;;;;;;;4.20;2.30;;;13.40;99.90;;;;;;5083407;28;21117;-84
2021/09/22 00:32:37;;;;;;;5.13;2.77;;;13.40;99.90;;;;;;5066472;28;20299;-83
2021/09/22 00:35:04;;;;;;;10.37;3.00;;;13.40;99.90;;;;;;5064677;28;20217;-85
2021/09/22 00:37:29;;;;;;;5.00;2.63;;;13.30;99.90;;;;;;5048767;28;20232;-83
2021/09/22 00:39:55;;;;;;;7.47;3.13;;;13.20;99.90;;;;;;5049267;28;20197;-85
2021/09/22 00:42:21;;;;;;;5.40;2.93;;;13.20;99.90;;;;;;5062595;28;20207;-83
2021/09/22 00:44:56;;;;;;;5.60;3.17;;;13.30;99.90;;;;;;5065524;28;20261;-85
2021/09/22 00:47:23;;;;;;;10.00;3.43;;;13.30;99.90;;;;;;5058562;28;20270;-83
2021/09/22 00:49:50;;;;;;;4.80;2.73;;;13.20;99.90;;;;;;5049112;28;20233;-84
2021/09/22 00:52:17;;;;;;;4.93;3.10;;;13.20;99.90;;;;;;5046518;28;20271;-83
2021/09/22 00:54:43;;;;;;;4.40;3.47;;;13.20;99.90;;;;;;5013011;28;20190;-85
2021/09/22 00:57:11;;;;;;;6.23;3.70;;;13.10;99.90;;;;;;5045750;28;20297;-84
2021/09/22 00:59:37;;;;;;;4.47;3.10;;;13.00;99.90;;;;;;5045214;28;20235;-86
2021/09/22 01:02:04;;;;;;;4.73;3.40;;;13.00;99.90;;;;;;5045536;28;20237;-83
2021/09/22 01:04:30;;;;;;;5.43;3.17;;;12.90;99.90;;;;;;5028189;28;20263;-85
2021/09/22 01:06:56;;;;;;;4.60;3.03;;;12.90;99.90;;;;;;5048766;28;20500;-85
2021/09/22 01:09:22;;;;;;;4.67;2.70;;;12.90;99.90;;;;;;5041202;28;20197;-85
2021/09/22 01:11:47;;;;;;;7.70;3.40;;;12.80;99.90;;;;;;5047696;28;20226;-83
2021/09/22 01:14:14;;;;;;;5.20;3.60;;;12.80;99.90;;;;;;5020905;28;20328;-84
2021/09/22 01:16:46;;;;;;;4.77;2.77;;;12.80;99.90;;;;;;5056011;28;20206;-85
2021/09/22 01:19:12;;;;;;;5.00;3.43;;;12.70;99.90;;;;;;5023761;28;20573;-87
2021/09/22 01:21:46;;;;;;;4.37;3.60;;;12.70;99.90;;;;;;5040626;28;20273;-88
2021/09/22 01:24:12;;;;;;;2.97;2.57;;;12.70;99.90;;;;;;5061832;28;20674;-85
2021/09/22 01:26:38;;;;;;;6.67;3.03;;;12.70;99.90;;;;;;5062418;28;20224;-85
2021/09/22 01:29:04;;;;;;;10.70;3.83;;;12.80;99.90;;;;;;5030565;28;20302;-83
2021/09/22 01:31:33;;;;;;;4.83;3.53;;;12.80;99.90;;;;;;5063961;28;20221;-84
2021/09/22 01:34:03;;;;;;;9.23;3.77;;;12.80;99.90;;;;;;5064489;28;20200;-85
2021/09/22 01:36:29;;;;;;;13.77;3.70;;;12.80;99.90;;;;;;5065770;28;20193;-84
2021/09/22 01:38:55;;;;;;;4.40;2.63;;;12.80;99.90;;;;;;5048475;28;20213;-83
2021/09/22 01:41:22;;;;;;;4.07;3.37;;;12.80;99.90;;;;;;5047988;28;20212;-83
2021/09/22 01:43:48;;;;;;;4.60;3.37;;;12.80;99.90;;;;;;5063032;28;20525;-85
2021/09/22 01:46:13;;;;;;;5.27;2.70;;;12.80;99.90;;;;;;5043752;28;20694;-83
2021/09/22 01:48:40;;;;;;;5.77;3.87;;;12.80;99.90;;;;;;5045094;28;20662;-83
2021/09/22 01:51:08;;;;;;;4.63;3.67;;;12.80;99.90;;;;;;5062847;28;20237;-83
2021/09/22 01:53:34;;;;;;;4.20;3.13;;;12.80;99.90;;;;;;5045621;28;20228;-85
2021/09/22 01:56:02;;;;;;;3.20;2.67;;;12.80;99.90;;;;;;5043963;28;20217;-85
2021/09/22 01:58:28;;;;;;;3.77;2.83;;;12.80;99.90;;;;;;5062303;28;20225;-85
2021/09/22 02:00:57;;;;;;;7.73;3.17;;;12.80;99.90;;;;;;5047605;28;20185;-85
2021/09/22 02:03:23;;;;;;;7.57;3.13;;;12.80;99.90;;;;;;5064417;28;20642;-83
2021/09/22 02:05:49;;;;;;;3.67;2.40;;;12.80;99.90;;;;;;5060332;28;20264;-82
2021/09/22 02:08:15;;;;;;;5.77;3.53;;;12.70;99.90;;;;;;5064262;28;20698;-84
2021/09/22 02:10:41;;;;;;;4.93;3.50;;;12.70;99.90;;;;;;5064949;28;20209;-83
2021/09/22 02:13:08;;;;;;;5.57;3.37;;;12.70;99.90;;;;;;5047080;28;20228;-86
2021/09/22 02:15:34;;;;;;;6.97;3.40;;;12.70;99.90;;;;;;5047259;28;20189;-82
2021/09/22 02:17:59;;;;;;;3.57;3.03;;;12.70;99.90;;;;;;5048003;28;20837;-82
2021/09/22 02:20:25;;;;;;;4.93;2.93;;;12.90;99.90;;;;;;5048016;28;20221;-84
2021/09/22 02:22:51;;;;;;;5.20;3.37;;;13.00;99.90;;;;;;5047636;28;20655;-84
2021/09/22 02:25:18;;;;;;;4.00;3.33;;;13.00;99.90;;;;;;5047498;28;20229;-82
2021/09/22 02:27:44;;;;;;;3.90;2.73;;;13.00;99.90;;;;;;5057609;28;20633;-84
2021/09/22 02:30:13;;;;;;;5.33;3.10;;;13.00;99.90;;;;;;5031251;28;20288;-83
2021/09/22 02:32:40;;;;;;;4.77;3.63;;;13.00;99.90;;;;;;5063289;28;20236;-85
2021/09/22 02:35:07;;;;;;;4.60;3.50;;;13.00;99.90;;;;;;5060040;28;20212;-85
2021/09/22 02:37:34;;;;;;;6.53;4.27;;;13.00;99.90;;;;;;5063004;28;20777;-83
2021/09/22 02:40:00;;;;;;;5.37;3.40;;;13.00;99.90;;;;;;5056568;28;20189;-83
2021/09/22 02:42:26;;;;;;;8.20;4.20;;;12.90;99.90;;;;;;5063945;28;20915;-84
2021/09/22 02:44:52;;;;;;;4.93;3.30;;;12.90;99.90;;;;;;5047502;28;20209;-84
2021/09/22 02:47:20;;;;;;;6.50;3.77;;;12.90;99.90;;;;;;5047327;28;20209;-84
2021/09/22 02:49:47;;;;;;;6.80;2.87;;;12.90;99.90;;;;;;5055851;28;21019;-82
2021/09/22 02:52:13;;;;;;;6.77;4.03;;;12.90;99.90;;;;;;5076291;28;20249;-83
2021/09/22 02:54:39;;;;;;;5.73;3.67;;;12.90;99.90;;;;;;5044581;28;20197;-82
2021/09/22 02:57:05;;;;;;;4.80;3.07;;;12.90;99.90;;;;;;5026505;28;20264;-84
2021/09/22 02:59:31;;;;;;;5.80;3.63;;;12.90;99.90;;;;;;5042824;28;20303;-85
2021/09/22 03:01:57;;;;;;;4.17;3.20;;;12.90;99.90;;;;;;5042220;28;20224;-85
2021/09/22 03:04:23;;;;;;;4.77;3.57;;;13.00;99.90;;;;;;5044959;28;20226;-82
2021/09/22 03:06:49;;;;;;;5.53;3.63;;;12.90;99.90;;;;;;5040719;28;20620;-83
2021/09/22 03:09:15;;;;;;;5.77;3.37;;;12.90;99.90;;;;;;5045049;28;20197;-83
2021/09/22 03:11:41;;;;;;;4.93;3.30;;;12.80;99.90;;;;;;5043166;28;20706;-84
2021/09/22 03:14:08;;;;;;;4.70;3.73;;;12.80;99.90;;;;;;5045164;28;20226;-83
2021/09/22 03:16:34;;;;;;;4.50;3.60;;;12.80;99.90;;;;;;5044008;28;20275;-86
2021/09/22 03:19:00;;;;;;;7.83;4.07;;;12.80;99.90;;;;;;5026937;28;20186;-84
2021/09/22 03:21:27;;;;;;;5.93;3.17;;;12.80;99.90;;;;;;5039262;28;20190;-82
2021/09/22 03:23:53;;;;;;;4.50;3.20;;;12.80;99.90;;;;;;5043183;28;20284;-83
2021/09/22 03:26:18;;;;;;;7.03;3.07;;;12.80;99.90;;;;;;5040288;28;20758;-83
2021/09/22 03:28:44;;;;;;;8.43;3.20;;;12.80;99.90;;;;;;5022518;28;20568;-85
2021/09/22 03:31:10;;;;;;;5.93;4.87;;;12.80;99.90;;;;;;5034455;28;21134;-83
2021/09/22 03:33:36;;;;;;;7.23;4.17;;;12.80;99.90;;;;;;5050475;28;20926;-83
2021/09/22 03:36:02;;;;;;;9.60;3.33;;;12.80;99.90;;;;;;5051010;28;20236;-84
2021/09/22 03:38:28;;;;;;;7.00;3.63;;;12.70;99.90;;;;;;5067035;28;20213;-85
2021/09/22 03:40:53;;;;;;;4.93;3.93;;;12.60;99.90;;;;;;5051062;28;20689;-86
2021/09/22 03:43:20;;;;;;;7.13;3.97;;;12.50;99.90;;;;;;5050357;28;20221;-84
2021/09/22 03:45:46;;;;;;;6.33;3.20;;;12.40;99.90;;;;;;5067736;28;20191;-83
2021/09/22 03:48:12;;;;;;;8.17;4.17;;;12.30;99.90;;;;;;5050478;28;20542;-83
2021/09/22 03:50:38;;;;;;;6.00;4.33;;;12.30;99.90;;;;;;5050513;28;20682;-83
2021/09/22 03:53:04;;;;;;;5.80;3.60;;;12.20;99.90;;;;;;5066483;28;20244;-84
2021/09/22 03:55:29;;;;;;;5.50;3.97;;;12.20;99.90;;;;;;5050355;28;20704;-85
2021/09/22 03:57:55;;;;;;;10.27;4.00;;;12.20;99.90;;;;;;5049687;28;20594;-82
2021/09/22 04:00:21;;;;;;;5.23;3.87;;;12.20;99.90;;;;;;5050648;28;20185;-86
2021/09/22 04:02:46;;;;;;;4.63;3.60;;;12.20;99.90;;;;;;5065926;28;20209;-83
2021/09/22 04:05:12;;;;;;;7.47;4.83;;;12.20;99.90;;;;;;5050395;28;20213;-84
2021/09/22 04:07:38;;;;;;;6.37;4.40;;;12.10;99.90;;;;;;5050437;28;20381;-82
2021/09/22 04:10:04;;;;;;;4.43;3.93;;;12.10;99.90;;;;;;5043327;28;20221;-84
2021/09/22 04:12:30;;;;;;;5.83;4.33;;;12.10;99.90;;;;;;5050572;28;20677;-83
2021/09/22 04:14:56;;;;;;;6.30;3.87;;;12.00;99.90;;;;;;5049746;28;20205;-83
2021/09/22 04:17:22;;;;;;;6.07;4.10;;;12.00;99.90;;;;;;5050098;28;20908;-83
2021/09/22 04:19:48;;;;;;;4.90;4.03;;;12.00;99.90;;;;;;5082880;28;20762;-85
2021/09/22 04:22:14;;;;;;;12.93;4.43;;;11.90;99.90;;;;;;5065506;28;20584;-84
2021/09/22 04:24:39;;;;;;;9.77;4.47;;;12.00;99.90;;;;;;5050109;28;20227;-84
2021/09/22 04:27:05;;;;;;;6.67;5.00;;;11.90;99.90;;;;;;5032758;28;20266;-86
2021/09/22 04:29:31;;;;;;;5.43;4.00;;;11.90;99.90;;;;;;5049728;28;20681;-86
2021/09/22 04:31:57;;;;;;;9.30;5.53;;;11.90;99.90;;;;;;5064482;28;20283;-84
2021/09/22 04:34:22;;;;;;;7.57;4.60;;;11.90;99.90;;;;;;5066983;28;21031;-85
2021/09/22 04:36:48;;;;;;;11.77;4.50;;;11.90;99.90;;;;;;5049246;28;21003;-85
2021/09/22 04:39:15;;;;;;;6.87;5.30;;;11.90;99.90;;;;;;5067483;28;20185;-84
2021/09/22 04:41:41;;;;;;;13.03;4.97;;;11.80;99.90;;;;;;5061357;28;20552;-83
2021/09/22 04:44:06;;;;;;;10.50;4.77;;;11.70;99.90;;;;;;5049937;28;20217;-84
2021/09/22 04:46:33;;;;;;;7.33;4.23;;;11.60;99.90;;;;;;5049576;28;20670;-86
2021/09/22 04:48:59;;;;;;;8.50;4.03;;;11.60;99.90;;;;;;5066571;28;20192;-83
2021/09/22 04:51:25;;;;;;;6.47;4.23;;;11.60;99.90;;;;;;5049729;28;20578;-85
2021/09/22 04:53:51;;;;;;;5.20;4.30;;;11.50;99.90;;;;;;5058399;28;20221;-86
2021/09/22 04:56:17;;;;;;;5.73;4.43;;;11.50;99.90;;;;;;5050312;28;20629;-87
2021/09/22 04:58:43;;;;;;;7.43;3.87;;;11.50;99.90;;;;;;5032994;28;20213;-84
2021/09/22 05:01:09;;;;;;;6.00;4.30;;;11.50;99.90;;;;;;5057843;28;20224;-87
2021/09/22 05:03:35;;;;;;;9.93;5.40;;;11.50;99.90;;;;;;5065334;28;20342;-88
2021/09/22 05:06:01;;;;;;;5.80;3.77;;;11.50;99.90;;;;;;5048090;28;20686;-88
2021/09/22 05:08:27;;;;;;;9.63;5.27;;;11.50;99.90;;;;;;5033037;28;20625;-87
2021/09/22 05:10:55;;;;;;;5.37;4.13;;;11.50;99.90;;;;;;5049327;28;20209;-89
2021/09/22 05:13:22;;;;;;;5.07;4.13;;;11.50;99.90;;;;;;5034065;28;20551;-87
2021/09/22 05:15:48;;;;;;;9.80;5.10;;;11.50;99.90;;;;;;5059361;28;20219;-86
2021/09/22 05:18:17;;;;;;;9.93;5.27;;;11.50;99.90;;;;;;5066597;28;20669;-88
2021/09/22 05:20:43;;;;;;;11.87;5.93;;;11.50;99.90;;;;;;5082479;28;20841;-86
2021/09/22 05:23:09;;;;;;;14.17;5.13;;;11.50;99.90;;;;;;5046719;28;20217;-86
2021/09/22 05:25:35;;;;;;;5.53;5.00;;;11.40;99.90;;;;;;5066504;28;20228;-86
2021/09/22 05:28:01;;;;;;;6.07;5.03;;;11.40;99.90;;;;;;5064941;28;20185;-87
2021/09/22 05:30:27;;;;;;;7.30;4.63;;;11.40;99.90;;;;;;5065432;28;20638;-88
2021/09/22 05:32:53;;;;;;;7.03;5.37;;;11.40;99.90;;;;;;5029839;28;20241;-84
2021/09/22 05:35:18;;;;;;;8.10;5.27;;;11.40;99.90;;;;;;5063993;28;20221;-84
2021/09/22 05:37:44;;;;;;;8.87;4.30;;;11.40;99.90;;;;;;5048476;28;20224;-84
2021/09/22 05:40:10;;;;;;;6.47;4.47;;;11.40;99.90;;;;;;5062203;28;20277;-84
2021/09/22 05:42:36;;;;;;;9.20;4.70;;;11.40;99.90;;;;;;5060919;28;20946;-84
2021/09/22 05:45:03;;;;;;;10.00;5.43;;;11.50;99.90;;;;;;5043966;28;20279;-85
2021/09/22 05:47:29;;;;;;;14.03;5.20;;;11.50;99.90;;;;;;5047457;28;20225;-84
2021/09/22 05:49:55;;;;;;;6.67;4.57;;;11.60;99.90;;;;;;5029033;28;20237;-87
2021/09/22 05:52:21;;;;;;;11.50;6.57;;;11.70;99.90;;;;;;5027091;28;20236;-85
2021/09/22 05:54:49;;;;;;;9.70;5.60;;;11.80;99.90;;;;;;5061222;28;20272;-85
2021/09/22 05:57:15;;;;;;;9.40;6.13;;;11.90;99.90;;;;;;5064731;28;20193;-85
2021/09/22 05:59:41;;;;;;;10.03;6.03;;;11.90;99.90;;;;;;5063268;28;20209;-87
2021/09/22 06:02:07;;;;;;;9.07;6.23;;;12.00;99.90;;;;;;5041904;28;20662;-87
2021/09/22 06:04:33;;;;;;;11.00;4.90;;;12.10;99.90;;;;;;5047840;28;20266;-83
2021/09/22 06:06:59;;;;;;;11.73;6.20;;;12.10;99.90;;;;;;5040713;28;21074;-81
2021/09/22 06:09:24;;;;;;;9.90;5.80;;;12.10;99.90;;;;;;5046957;28;20190;-86
2021/09/22 06:11:50;;;;;;;9.00;5.57;;;12.30;99.90;;;;;;5047451;28;20348;-85
2021/09/22 06:14:16;;;;;;;20.93;6.37;;;12.40;99.90;;;;;;5029512;28;20741;-90
2021/09/22 06:16:41;;;;;;;9.60;6.27;;;12.40;99.90;;;;;;5047687;28;20654;-85
2021/09/22 06:19:09;;;;;;;9.83;6.07;;;12.50;99.90;;;;;;5047645;28;20739;-85
2021/09/22 06:21:36;;;;;;;20.83;6.43;;;12.60;99.90;;;;;;5047633;28;20203;-85
2021/09/22 06:24:02;;;;;;;11.63;6.00;;;12.70;99.90;;;;;;5068459;28;20201;-87
2021/09/22 06:26:28;;;;;;;9.17;6.07;;;12.80;99.90;;;;;;5052339;28;20208;-85
2021/09/22 06:28:54;;;;;;;7.07;5.57;;;13.10;99.90;;;;;;5038397;28;20221;-89
2021/09/22 06:31:21;;;;;;;8.87;5.70;;;13.80;99.90;;;;;;5056143;28;20255;-86
2021/09/22 06:33:46;;;;;;;11.93;8.17;;;14.10;99.90;;;;;;5029522;28;20717;-86
2021/09/22 06:36:12;;;;;;;12.27;6.90;;;15.00;99.90;;;;;;5062277;28;20193;-84
2021/09/22 06:38:38;;;;;;;9.43;7.30;;;15.80;99.90;;;;;;5045122;28;20283;-83
2021/09/22 06:41:05;;;;;;;14.50;7.33;;;17.30;99.90;;;;;;5044689;28;20224;-86
2021/09/22 06:43:31;;;;;;;8.77;4.80;;;18.40;99.90;;;;;;5045248;28;20224;-83
2021/09/22 06:45:57;;;;;;;7.67;5.17;;;18.50;99.90;;;;;;5044118;28;20181;-84
2021/09/22 06:48:23;;;;;;;10.43;4.53;;;19.20;99.90;;;;;;5046281;28;20667;-85
2021/09/22 06:50:49;;;;;;;7.87;4.90;;;19.60;99.90;;;;;;5060640;28;20290;-84
2021/09/22 06:53:15;;;;;;;7.30;4.03;;;19.80;99.90;;;;;;5062517;28;20229;-83
2021/09/22 06:55:41;;;;;;;6.10;4.03;;;20.10;99.90;;;;;;5045101;28;20674;-85
2021/09/22 06:58:07;;;;;;;6.30;4.87;;;20.30;99.90;;;;;;5044767;28;20213;-86
2021/09/22 07:00:36;;;;;;;9.30;5.20;;;21.10;99.90;;;;;;5044977;28;20194;-84
2021/09/22 07:03:09;;;;;;;5.90;4.20;;;22.20;99.90;;;;;;5060506;28;20325;-86
2021/09/22 07:05:35;;;;;;;7.00;4.23;;;22.70;99.90;;;;;;5045599;28;20213;-83
2021/09/22 07:08:01;;;;;;;6.77;4.40;;;23.40;99.90;;;;;;5034349;28;20216;-83
2021/09/22 07:10:31;;;;;;;6.70;3.97;;;24.00;99.90;;;;;;5016794;28;20214;-86
2021/09/22 07:12:57;;;;;;;9.33;5.07;;;24.70;99.90;;;;;;5036430;28;20221;-85
2021/09/22 07:15:23;;;;;;;7.53;4.20;;;25.40;99.90;;;;;;5006527;28;20220;-84
2021/09/22 07:17:49;;;;;;;7.37;4.33;;;24.90;99.90;;;;;;5023244;28;20574;-85
2021/09/22 07:20:14;;;;;;;9.47;5.13;;;24.50;99.90;;;;;;5041836;28;20222;-86
2021/09/22 07:22:40;;;;;;;7.73;5.27;;;24.80;99.90;;;;;;5021550;28;20695;-85
2021/09/22 07:25:07;;;;;;;8.93;4.60;;;25.00;99.90;;;;;;5022324;28;20304;-84
2021/09/22 07:27:33;;;;;;;8.50;4.60;;;25.10;99.90;;;;;;5041097;28;20189;-85
2021/09/22 07:29:59;;;;;;;10.13;4.97;;;25.20;99.90;;;;;;5024248;28;20221;-83
2021/09/22 07:32:24;;;;;;;8.10;4.77;;;25.90;99.90;;;;;;5040895;28;20274;-86
2021/09/22 07:34:50;;;;;;;6.00;4.53;;;26.30;99.90;;;;;;5025178;28;20229;-83
2021/09/22 07:37:18;;;;;;;7.50;4.60;;;26.40;99.90;;;;;;5010478;28;20221;-82
2021/09/22 07:39:44;;;;;;;8.00;5.03;;;26.20;99.90;;;;;;5040413;28;20194;-84
2021/09/22 07:42:12;;;;;;;6.87;5.20;;;26.60;99.90;;;;;;5041761;28;20195;-85
2021/09/22 07:44:40;;;;;;;7.57;5.30;;;26.60;99.90;;;;;;5025717;28;20229;-83
2021/09/22 07:47:06;;;;;;;12.10;5.75;;;25.60;99.90;;;;;;5042358;28;20307;-85
2021/09/22 07:49:32;;;;;;;6.47;4.80;;;26.10;99.90;;;;;;5042450;28;20695;-86
2021/09/22 07:51:58;;;;;;;11.13;5.68;;;26.50;99.90;;;;;;5009472;28;20801;-85
2021/09/22 07:54:24;;;;;;;9.77;5.07;;;25.80;99.90;;;;;;5043953;28;20700;-88
2021/09/22 07:56:50;;;;;;;8.98;5.40;;;26.10;99.90;;;;;;5027025;28;20733;-88
2021/09/22 07:59:15;;;;;;;7.70;5.15;;;26.30;99.90;;;;;;5043266;28;20255;-89
2021/09/22 08:01:41;;;;;;;9.32;5.40;;;26.60;99.90;;;;;;5032017;28;20678;-88
2021/09/22 08:04:07;;;;;;;7.93;5.82;;;26.40;99.90;;;;;;5027419;28;20217;-89
2021/09/22 08:06:33;;;;;;;8.57;5.55;;;26.90;99.90;;;;;;5028399;28;20194;-90
2021/09/22 08:08:58;;;;;;;7.82;5.22;;;27.70;99.90;;;;;;5046863;28;20300;-89
2021/09/22 08:11:24;;;;;;;7.88;4.68;;;27.60;99.90;;;;;;5031229;28;20230;-90
2021/09/22 08:13:50;;;;;;;6.93;5.15;;;27.30;99.90;;;;;;5046666;28;20214;-86
2021/09/22 08:16:16;;;;;;;11.25;5.72;;;27.30;99.90;;;;;;5049230;28;20275;-88
2021/09/22 08:18:45;;;;;;;8.63;5.82;;;26.40;99.90;;;;;;5024048;28;20213;-92
2021/09/22 08:21:12;;;;;;;9.02;5.47;;;27.50;99.90;;;;;;5051459;28;20735;-86
2021/09/22 08:23:40;;;;;;;11.18;5.80;;;28.40;99.90;;;;;;5051167;28;20221;-90
2021/09/22 08:26:06;;;;;;;8.48;5.70;;;28.00;99.90;;;;;;5055799;28;20596;-87
2021/09/22 08:28:32;;;;;;;9.45;5.57;;;27.70;99.90;;;;;;5047556;28;20230;-90
2021/09/22 08:30:58;;;;;;;9.70;6.00;;;27.60;99.90;;;;;;5030066;28;20241;-86
2021/09/22 08:33:24;;;;;;;9.82;6.20;;;27.70;99.90;;;;;;5041342;28;20902;-89
2021/09/22 08:35:49;;;;;;;10.60;6.00;;;28.50;99.90;;;;;;5029629;28;20667;-86
2021/09/22 08:38:15;;;;;;;9.48;6.03;;;27.80;99.90;;;;;;5045778;28;20245;-86
2021/09/22 08:40:41;;;;;;;10.05;6.22;;;28.10;99.90;;;;;;5029427;28;20233;-87
2021/09/22 08:43:07;;;;;;;11.98;5.93;;;27.90;99.90;;;;;;5020037;28;20217;-87
2021/09/22 08:45:36;;;;;;;10.00;6.13;;;28.00;99.90;;;;;;5046859;28;20190;-90
2021/09/22 08:48:03;;;;;;;8.10;5.70;;;28.10;99.90;;;;;;5029971;28;20283;-88
2021/09/22 08:50:29;;;;;;;8.82;6.07;;;26.30;99.90;;;;;;5029717;28;20265;-89
2021/09/22 08:52:55;;;;;;;8.65;5.82;;;25.60;99.90;;;;;;5038412;28;20272;-88
2021/09/22 08:55:21;;;;;;;13.10;5.70;;;25.90;99.90;;;;;;5015135;28;20557;-86
2021/09/22 08:57:47;;;;;;;7.15;5.53;;;26.30;99.90;;;;;;5029730;28;20205;-90
2021/09/22 09:00:14;;;;;;;11.95;6.35;;;25.40;99.90;;;;;;5046009;28;20194;-88
2021/09/22 09:02:43;;;;;;;8.02;5.47;;;25.00;99.90;;;;;;5045749;28;20220;-86
2021/09/22 09:05:12;;;;;;;10.15;5.85;;;24.80;99.90;;;;;;5042781;28;20221;-85
2021/09/22 09:07:59;;;;;;;12.45;5.53;;;24.10;99.90;;;;;;5046660;28;20210;-87
2021/09/22 09:10:26;;;;;;;7.75;5.25;;;23.90;99.90;;;;;;5046046;28;20214;-85
2021/09/22 09:12:59;;;;;;;12.07;5.30;;;22.80;99.90;;;;;;5044773;28;20210;-86
2021/09/22 09:15:32;;;;;;;11.75;5.40;;;22.30;99.90;;;;;;5045332;28;20324;-86
2021/09/22 09:18:00;;;;;;;8.80;5.00;;;22.20;99.90;;;;;;5045231;28;20206;-85
2021/09/22 09:20:28;;;;;;;10.85;5.72;;;22.00;99.90;;;;;;5023691;28;20301;-85
2021/09/22 09:23:06;;;;;;;7.78;4.88;;;22.00;99.90;;;;;;5038560;28;20439;-84
2021/09/22 09:25:42;;;;;;;13.27;5.97;;;21.70;99.90;;;;;;5065809;28;20228;-85
2021/09/22 09:28:33;;;;;;;8.40;4.87;;;21.90;99.90;;;;;;5058803;28;20217;-88
2021/09/22 09:31:06;;;;;;;6.07;4.22;;;22.80;99.90;;;;;;5065489;28;20516;-86
2021/09/22 09:33:50;;;;;;;6.82;4.20;;;22.80;99.90;;;;;;5067145;28;20215;-84
2021/09/22 09:36:35;;;;;;;9.60;4.78;;;23.00;99.90;;;;;;5065499;28;20219;-87
2021/09/22 09:39:20;;;;;;;7.93;4.20;;;24.30;99.90;;;;;;5064605;28;20213;-87
2021/09/22 09:41:49;;;;;;;7.68;5.13;;;24.30;99.90;;;;;;5064027;28;20221;-88
2021/09/22 09:44:18;;;;;;;8.45;5.55;;;24.20;99.90;;;;;;5065443;28;20221;-86
2021/09/22 09:46:44;;;;;;;9.02;4.78;;;24.50;99.90;;;;;;5064177;28;20690;-86
2021/09/22 09:49:31;;;;;;;7.55;4.82;;;24.60;99.90;;;;;;5058394;28;20216;-85
2021/09/22 09:51:58;;;;;;;7.85;4.90;;;25.10;99.90;;;;;;5063895;28;20216;-84
2021/09/22 09:54:33;;;;;;;7.38;5.00;;;25.00;99.90;;;;;;5047065;28;20212;-85
2021/09/22 09:57:13;;;;;;;9.00;4.55;;;25.30;99.90;;;;;;5063896;28;20271;-85
2021/09/22 09:59:47;;;;;;;7.20;4.40;;;25.60;99.90;;;;;;5059741;28;20209;-88
2021/09/22 10:02:32;;;;;;;4.88;4.38;;;25.30;99.90;;;;;;5063055;28;20847;-85
2021/09/22 10:04:59;;;;;;;6.63;4.60;;;24.80;99.90;;;;;;5047195;28;20217;-83
2021/09/22 10:07:26;;;;;;;6.80;3.70;;;24.50;99.90;;;;;;5063490;28;20213;-84
2021/09/22 10:09:52;;;;;;;7.90;3.78;;;24.20;99.90;;;;;;5064053;28;20661;-84
2021/09/22 10:12:19;;;;;;;6.45;3.40;;;23.80;99.90;;;;;;5045521;28;20752;-85
2021/09/22 10:14:46;;;;;;;5.88;3.75;;;23.30;99.90;;;;;;5046753;28;20208;-86
2021/09/22 10:17:16;;;;;;;4.97;3.40;;;23.20;99.90;;;;;;5046868;28;20217;-83
2021/09/22 10:19:46;;;;;;;4.32;3.58;;;23.90;99.90;;;;;;5062690;28;20210;-85
2021/09/22 10:22:13;;;;;;;5.93;3.65;;;23.80;99.90;;;;;;5063148;28;20221;-86
2021/09/22 10:24:42;;;;;;;5.22;3.95;;;24.40;99.90;;;;;;5056919;28;20185;-85
2021/09/22 10:27:13;;;;;;;5.70;3.60;;;24.40;99.90;;;;;;5062907;28;20706;-84
2021/09/22 10:29:51;;;;;;;5.55;3.58;;;24.00;99.90;;;;;;5062142;28;20221;-85
2021/09/22 10:32:37;;;;;;;6.40;3.50;;;24.30;99.90;;;;;;5056325;28;20240;-85
2021/09/22 10:35:25;;;;;;;9.35;4.30;;;24.50;99.90;;;;;;5062780;28;20278;-86
2021/09/22 10:37:52;;;;;;;5.05;3.67;;;24.90;99.90;;;;;;5062889;28;20233;-84
2021/09/22 10:40:19;;;;;;;4.25;3.65;;;24.70;99.90;;;;;;5059761;28;20747;-83
2021/09/22 10:42:45;;;;;;;7.13;3.70;;;24.80;99.90;;;;;;5063291;28;20224;-84
2021/09/22 10:45:20;;;;;;;4.95;3.78;;;24.80;99.90;;;;;;5046409;28;20307;-85
2021/09/22 10:47:48;;;;;;;6.53;5.03;;;25.20;99.90;;;;;;5062765;28;20255;-85
2021/09/22 10:50:39;;;;;;;5.20;3.38;;;24.70;99.90;;;;;;5046005;28;20236;-84
2021/09/22 10:53:30;;;;;;;5.53;3.38;;;24.10;99.90;;;;;;5062869;28;20321;-83
2021/09/22 10:56:14;;;;;;;6.32;3.03;;;23.90;99.90;;;;;;5062091;28;20296;-83
2021/09/22 10:58:53;;;;;;;6.75;3.97;;;24.00;99.90;;;;;;5061491;28;20236;-84
2021/09/22 11:01:40;;;;;;;4.25;3.50;;;23.80;99.90;;;;;;5058958;28;20948;-82
2021/09/22 11:04:11;;;;;;;5.22;3.20;;;23.80;99.90;;;;;;5062288;28;20216;-84
2021/09/22 11:06:43;;;;;;;8.55;3.63;;;24.20;99.90;;;;;;5043662;28;20232;-82
2021/09/22 11:09:19;;;;;;;6.15;4.00;;;23.70;99.90;;;;;;5059758;28;20227;-84
2021/09/22 11:12:00;;;;;;;5.28;3.30;;;23.70;99.90;;;;;;5060988;28;20221;-85
2021/09/22 11:14:43;;;;;;;5.78;3.70;;;24.40;99.90;;;;;;5063641;28;20220;-81
2021/09/22 11:17:15;;;;;;;7.95;3.13;;;24.30;99.90;;;;;;5061738;28;20244;-83
2021/09/22 11:19:43;;;;;;;5.38;3.55;;;24.40;99.90;;;;;;5062223;28;20224;-81
2021/09/22 11:22:24;;;;;;;6.95;3.22;;;24.10;99.90;;;;;;5053990;28;20212;-83
2021/09/22 11:24:53;;;;;;;4.88;3.40;;;24.30;99.90;;;;;;5050553;28;21034;-82
2021/09/22 11:27:22;;;;;;;3.70;3.08;;;24.80;99.90;;;;;;5029090;28;20204;-82
2021/09/22 11:30:07;;;;;;;4.57;3.42;;;24.80;99.90;;;;;;5059207;28;20251;-83
2021/09/22 11:32:38;;;;;;;5.05;3.25;;;24.50;99.90;;;;;;5061182;28;20225;-83
2021/09/22 11:35:05;;;;;;;5.95;3.05;;;24.70;99.90;;;;;;5042537;28;20244;-84
2021/09/22 11:37:39;;;;;;;5.75;3.10;;;24.50;99.90;;;;;;5074675;28;20297;-85
2021/09/22 11:40:12;;;;;;;3.67;3.10;;;24.40;99.90;;;;;;5049105;28;20213;-83
2021/09/22 11:42:59;;;;;;;4.97;3.50;;;23.60;99.90;;;;;;5062569;28;20208;-82
2021/09/22 11:45:33;;;;;;;4.85;3.13;;;22.90;99.90;;;;;;5066186;28;20220;-81
2021/09/22 11:47:59;;;;;;;4.55;3.35;;;22.90;99.90;;;;;;5065406;28;20215;-81
2021/09/22 11:50:29;;;;;;;7.03;3.75;;;22.90;99.90;;;;;;5059294;28;20286;-85
2021/09/22 11:52:56;;;;;;;7.20;3.42;;;22.40;99.90;;;;;;5065312;28;20568;-83
2021/09/22 11:55:22;;;;;;;8.13;3.90;;;22.60;99.90;;;;;;5025951;28;20229;-81
2021/09/22 11:57:48;;;;;;;6.10;4.15;;;22.80;99.90;;;;;;5058747;28;20230;-82
2021/09/22 12:00:17;;;;;;;6.15;4.22;;;22.90;99.90;;;;;;5050042;28;20194;-83
2021/09/22 12:02:42;;;;;;;7.90;4.00;;;23.20;99.90;;;;;;5066470;28;20210;-82
2021/09/22 12:05:20;;;;;;;6.07;3.20;;;23.30;99.90;;;;;;5029465;28;20349;-83
2021/09/22 12:07:51;;;;;;;4.88;3.38;;;23.50;99.90;;;;;;5045927;28;20208;-82
2021/09/22 12:10:17;;;;;;;8.13;4.35;;;23.50;99.90;;;;;;5059896;28;20629;-81
2021/09/22 12:12:43;;;;;;;9.73;3.90;;;23.50;99.90;;;;;;5038757;28;20236;-84
2021/09/22 12:15:10;;;;;;;5.40;3.45;;;23.40;99.90;;;;;;5045508;28;20224;-82
2021/09/22 12:17:38;;;;;;;6.75;3.75;;;22.70;99.90;;;;;;5043983;28;20861;-82
2021/09/22 12:20:08;;;;;;;8.15;4.68;;;22.00;99.90;;;;;;5065595;28;20244;-85
2021/09/22 12:22:37;;;;;;;8.23;4.75;;;22.00;99.90;;;;;;5064567;28;20229;-83
2021/09/22 12:25:07;;;;;;;11.35;4.45;;;21.90;99.90;;;;;;5065060;28;20209;-83
2021/09/22 12:27:34;;;;;;;10.85;4.50;;;21.60;99.90;;;;;;5063627;28;20189;-81
2021/09/22 12:30:05;;;;;;;8.13;4.93;;;21.40;99.90;;;;;;5064659;28;20213;-82
2021/09/22 12:32:49;;;;;;;4.83;4.10;;;21.30;99.90;;;;;;5065663;28;20228;-82
2021/09/22 12:35:15;;;;;;;8.63;5.07;;;21.40;99.90;;;;;;5063400;28;20213;-81
2021/09/22 12:37:41;;;;;;;15.53;5.03;;;21.70;99.90;;;;;;5065170;28;20634;-86
2021/09/22 12:40:12;;;;;;;5.93;4.53;;;21.70;99.90;;;;;;5049160;28;20217;-83
2021/09/22 12:42:47;;;;;;;7.63;4.80;;;21.40;99.90;;;;;;5065164;28;20204;-83
2021/09/22 12:45:26;;;;;;;7.97;4.03;;;21.40;99.90;;;;;;5065745;28;20224;-83
2021/09/22 12:48:01;;;;;;;8.33;5.17;;;21.70;99.90;;;;;;5048290;28;20241;-84
2021/09/22 12:50:34;;;;;;;11.53;5.20;;;21.90;99.90;;;;;;5044784;28;20230;-85